sensor_id;sensor_type;location;lat;lon;timestamp;P1;durP1;ratioP1;P2;durP2;ratioP2
26530;SDS011;14201;43.188;24.160;2023-12-04T00:01:24;11.90;;;7.55;;
26530;SDS011;14201;43.188;24.160;2023-12-04T00:03:51;9.10;;;7.25;;
26530;SDS011;14201;43.188;24.160;2023-12-04T00:06:18;11.55;;;7.47;;
26530;SDS011;14201;43.188;24.160;2023-12-04T00:08:44;9.10;;;7.45;;
26530;SDS011;14201;43.188;24.160;2023-12-04T00:11:10;11.70;;;7.78;;
26530;SDS011;14201;43.188;24.160;2023-12-04T00:13:36;14.35;;;8.02;;
26530;SDS011;14201;43.188;24.160;2023-12-04T00:16:01;11.38;;;9.00;;
26530;SDS011;14201;43.188;24.160;2023-12-04T00:18:27;14.82;;;10.27;;
26530;SDS011;14201;43.188;24.160;2023-12-04T00:20:53;18.35;;;10.57;;
26530;SDS011;14201;43.188;24.160;2023-12-04T00:23:18;12.80;;;9.32;;
26530;SDS011;14201;43.188;24.160;2023-12-04T00:25:44;13.30;;;9.68;;
26530;SDS011;14201;43.188;24.160;2023-12-04T00:28:10;16.52;;;9.88;;
26530;SDS011;14201;43.188;24.160;2023-12-04T00:30:35;16.30;;;10.85;;
26530;SDS011;14201;43.188;24.160;2023-12-04T00:33:01;18.95;;;10.50;;
26530;SDS011;14201;43.188;24.160;2023-12-04T00:35:27;13.80;;;9.70;;
26530;SDS011;14201;43.188;24.160;2023-12-04T00:37:52;13.77;;;10.10;;
26530;SDS011;14201;43.188;24.160;2023-12-04T00:40:18;17.00;;;10.50;;
26530;SDS011;14201;43.188;24.160;2023-12-04T00:42:43;15.23;;;9.65;;
26530;SDS011;14201;43.188;24.160;2023-12-04T00:45:09;12.93;;;9.45;;
26530;SDS011;14201;43.188;24.160;2023-12-04T00:47:35;11.77;;;8.93;;
26530;SDS011;14201;43.188;24.160;2023-12-04T00:50:01;13.05;;;9.65;;
26530;SDS011;14201;43.188;24.160;2023-12-04T00:52:26;16.23;;;10.48;;
26530;SDS011;14201;43.188;24.160;2023-12-04T00:54:52;14.80;;;10.48;;
26530;SDS011;14201;43.188;24.160;2023-12-04T00:57:18;14.32;;;10.55;;
26530;SDS011;14201;43.188;24.160;2023-12-04T00:59:44;15.05;;;10.07;;
26530;SDS011;14201;43.188;24.160;2023-12-04T01:02:10;17.42;;;9.77;;
26530;SDS011;14201;43.188;24.160;2023-12-04T01:04:35;13.63;;;9.68;;
26530;SDS011;14201;43.188;24.160;2023-12-04T01:07:01;18.05;;;10.57;;
26530;SDS011;14201;43.188;24.160;2023-12-04T01:09:27;13.77;;;9.70;;
26530;SDS011;14201;43.188;24.160;2023-12-04T01:11:53;18.15;;;9.95;;
26530;SDS011;14201;43.188;24.160;2023-12-04T01:14:19;14.50;;;10.02;;
26530;SDS011;14201;43.188;24.160;2023-12-04T01:16:46;16.25;;;9.57;;
26530;SDS011;14201;43.188;24.160;2023-12-04T01:19:11;13.93;;;9.77;;
26530;SDS011;14201;43.188;24.160;2023-12-04T01:21:37;14.07;;;9.82;;
26530;SDS011;14201;43.188;24.160;2023-12-04T01:24:03;15.20;;;9.75;;
26530;SDS011;14201;43.188;24.160;2023-12-04T01:26:29;14.13;;;9.68;;
26530;SDS011;14201;43.188;24.160;2023-12-04T01:28:55;12.20;;;9.38;;
26530;SDS011;14201;43.188;24.160;2023-12-04T01:31:20;12.93;;;9.55;;
26530;SDS011;14201;43.188;24.160;2023-12-04T01:33:49;13.90;;;9.45;;
26530;SDS011;14201;43.188;24.160;2023-12-04T01:36:15;12.45;;;8.98;;
26530;SDS011;14201;43.188;24.160;2023-12-04T01:38:40;12.25;;;8.60;;
26530;SDS011;14201;43.188;24.160;2023-12-04T01:41:06;12.15;;;9.10;;
26530;SDS011;14201;43.188;24.160;2023-12-04T01:43:32;14.77;;;9.65;;
26530;SDS011;14201;43.188;24.160;2023-12-04T01:45:58;13.55;;;10.45;;
26530;SDS011;14201;43.188;24.160;2023-12-04T01:48:26;16.88;;;10.30;;
26530;SDS011;14201;43.188;24.160;2023-12-04T01:50:52;20.02;;;11.75;;
26530;SDS011;14201;43.188;24.160;2023-12-04T01:53:18;13.80;;;10.10;;
26530;SDS011;14201;43.188;24.160;2023-12-04T01:55:44;15.10;;;10.73;;
26530;SDS011;14201;43.188;24.160;2023-12-04T01:58:11;15.05;;;10.80;;
26530;SDS011;14201;43.188;24.160;2023-12-04T02:00:37;13.30;;;9.65;;
26530;SDS011;14201;43.188;24.160;2023-12-04T02:03:03;14.25;;;10.15;;
26530;SDS011;14201;43.188;24.160;2023-12-04T02:05:29;14.15;;;9.68;;
26530;SDS011;14201;43.188;24.160;2023-12-04T02:07:57;14.63;;;9.80;;
26530;SDS011;14201;43.188;24.160;2023-12-04T02:10:22;12.48;;;9.77;;
26530;SDS011;14201;43.188;24.160;2023-12-04T02:12:49;13.93;;;9.80;;
26530;SDS011;14201;43.188;24.160;2023-12-04T02:15:15;12.02;;;9.20;;
26530;SDS011;14201;43.188;24.160;2023-12-04T02:17:42;13.73;;;9.60;;
26530;SDS011;14201;43.188;24.160;2023-12-04T02:20:09;11.63;;;9.00;;
26530;SDS011;14201;43.188;24.160;2023-12-04T02:22:37;15.20;;;9.20;;
26530;SDS011;14201;43.188;24.160;2023-12-04T02:25:03;13.23;;;9.63;;
26530;SDS011;14201;43.188;24.160;2023-12-04T02:27:38;13.10;;;9.20;;
26530;SDS011;14201;43.188;24.160;2023-12-04T02:30:09;17.27;;;9.38;;
26530;SDS011;14201;43.188;24.160;2023-12-04T02:32:38;17.20;;;10.40;;
26530;SDS011;14201;43.188;24.160;2023-12-04T02:35:09;12.68;;;9.77;;
26530;SDS011;14201;43.188;24.160;2023-12-04T02:37:36;13.70;;;8.98;;
26530;SDS011;14201;43.188;24.160;2023-12-04T02:40:03;17.27;;;9.73;;
26530;SDS011;14201;43.188;24.160;2023-12-04T02:42:31;13.07;;;8.95;;
26530;SDS011;14201;43.188;24.160;2023-12-04T02:44:57;12.90;;;8.40;;
26530;SDS011;14201;43.188;24.160;2023-12-04T02:47:23;16.20;;;9.82;;
26530;SDS011;14201;43.188;24.160;2023-12-04T02:49:49;15.75;;;9.98;;
26530;SDS011;14201;43.188;24.160;2023-12-04T02:52:15;13.20;;;8.75;;
26530;SDS011;14201;43.188;24.160;2023-12-04T02:54:40;10.55;;;7.80;;
26530;SDS011;14201;43.188;24.160;2023-12-04T02:57:06;11.45;;;8.75;;
26530;SDS011;14201;43.188;24.160;2023-12-04T02:59:32;11.43;;;8.55;;
26530;SDS011;14201;43.188;24.160;2023-12-04T03:01:57;13.50;;;8.60;;
26530;SDS011;14201;43.188;24.160;2023-12-04T03:04:23;10.77;;;8.30;;
26530;SDS011;14201;43.188;24.160;2023-12-04T03:06:49;11.30;;;8.30;;
26530;SDS011;14201;43.188;24.160;2023-12-04T03:09:15;11.02;;;8.48;;
26530;SDS011;14201;43.188;24.160;2023-12-04T03:11:41;11.32;;;8.60;;
26530;SDS011;14201;43.188;24.160;2023-12-04T03:14:07;10.93;;;7.93;;
26530;SDS011;14201;43.188;24.160;2023-12-04T03:16:33;11.68;;;8.40;;
26530;SDS011;14201;43.188;24.160;2023-12-04T03:18:58;10.63;;;7.80;;
26530;SDS011;14201;43.188;24.160;2023-12-04T03:21:24;10.70;;;8.05;;
26530;SDS011;14201;43.188;24.160;2023-12-04T03:23:50;14.65;;;7.95;;
26530;SDS011;14201;43.188;24.160;2023-12-04T03:26:16;10.95;;;8.30;;
26530;SDS011;14201;43.188;24.160;2023-12-04T03:28:42;13.27;;;9.15;;
26530;SDS011;14201;43.188;24.160;2023-12-04T03:31:07;11.98;;;8.50;;
26530;SDS011;14201;43.188;24.160;2023-12-04T03:33:33;11.57;;;9.07;;
26530;SDS011;14201;43.188;24.160;2023-12-04T03:35:59;12.55;;;9.07;;
26530;SDS011;14201;43.188;24.160;2023-12-04T03:38:25;11.93;;;8.77;;
26530;SDS011;14201;43.188;24.160;2023-12-04T03:40:51;11.88;;;9.18;;
26530;SDS011;14201;43.188;24.160;2023-12-04T03:43:16;12.73;;;8.68;;
26530;SDS011;14201;43.188;24.160;2023-12-04T03:45:42;12.63;;;8.85;;
26530;SDS011;14201;43.188;24.160;2023-12-04T03:48:08;13.05;;;8.80;;
26530;SDS011;14201;43.188;24.160;2023-12-04T03:50:33;12.13;;;8.82;;
26530;SDS011;14201;43.188;24.160;2023-12-04T03:52:59;15.52;;;9.57;;
26530;SDS011;14201;43.188;24.160;2023-12-04T03:55:25;11.88;;;8.98;;
26530;SDS011;14201;43.188;24.160;2023-12-04T03:57:51;13.10;;;9.40;;
26530;SDS011;14201;43.188;24.160;2023-12-04T04:00:17;14.18;;;8.80;;
26530;SDS011;14201;43.188;24.160;2023-12-04T04:02:43;14.95;;;9.52;;
26530;SDS011;14201;43.188;24.160;2023-12-04T04:05:10;12.48;;;9.32;;
26530;SDS011;14201;43.188;24.160;2023-12-04T04:07:35;14.18;;;10.10;;
26530;SDS011;14201;43.188;24.160;2023-12-04T04:10:01;13.25;;;9.73;;
26530;SDS011;14201;43.188;24.160;2023-12-04T04:12:29;14.27;;;9.70;;
26530;SDS011;14201;43.188;24.160;2023-12-04T04:14:55;13.02;;;9.75;;
26530;SDS011;14201;43.188;24.160;2023-12-04T04:17:21;10.90;;;8.30;;
26530;SDS011;14201;43.188;24.160;2023-12-04T04:19:47;11.60;;;9.10;;
26530;SDS011;14201;43.188;24.160;2023-12-04T04:22:13;12.32;;;8.65;;
26530;SDS011;14201;43.188;24.160;2023-12-04T04:24:38;11.50;;;8.73;;
26530;SDS011;14201;43.188;24.160;2023-12-04T04:27:04;10.65;;;8.38;;
26530;SDS011;14201;43.188;24.160;2023-12-04T04:29:30;12.55;;;9.18;;
26530;SDS011;14201;43.188;24.160;2023-12-04T04:31:55;14.85;;;9.30;;
26530;SDS011;14201;43.188;24.160;2023-12-04T04:34:21;22.80;;;11.73;;
26530;SDS011;14201;43.188;24.160;2023-12-04T04:36:46;22.15;;;10.73;;
26530;SDS011;14201;43.188;24.160;2023-12-04T04:39:13;21.40;;;9.93;;
26530;SDS011;14201;43.188;24.160;2023-12-04T04:41:39;16.67;;;9.52;;
26530;SDS011;14201;43.188;24.160;2023-12-04T04:44:06;26.27;;;10.15;;
26530;SDS011;14201;43.188;24.160;2023-12-04T04:46:32;23.85;;;10.18;;
26530;SDS011;14201;43.188;24.160;2023-12-04T04:48:57;25.63;;;10.50;;
26530;SDS011;14201;43.188;24.160;2023-12-04T04:51:23;25.85;;;10.40;;
26530;SDS011;14201;43.188;24.160;2023-12-04T04:53:49;12.27;;;8.15;;
26530;SDS011;14201;43.188;24.160;2023-12-04T04:56:15;17.00;;;9.55;;
26530;SDS011;14201;43.188;24.160;2023-12-04T04:58:41;17.30;;;9.02;;
26530;SDS011;14201;43.188;24.160;2023-12-04T05:01:07;14.38;;;9.00;;
26530;SDS011;14201;43.188;24.160;2023-12-04T05:03:33;13.43;;;8.25;;
26530;SDS011;14201;43.188;24.160;2023-12-04T05:05:59;12.65;;;8.23;;
26530;SDS011;14201;43.188;24.160;2023-12-04T05:08:25;14.98;;;7.90;;
26530;SDS011;14201;43.188;24.160;2023-12-04T05:10:51;15.63;;;9.07;;
26530;SDS011;14201;43.188;24.160;2023-12-04T05:13:17;15.82;;;8.13;;
26530;SDS011;14201;43.188;24.160;2023-12-04T05:15:42;13.27;;;8.30;;
26530;SDS011;14201;43.188;24.160;2023-12-04T05:18:08;11.25;;;8.40;;
26530;SDS011;14201;43.188;24.160;2023-12-04T05:20:33;17.38;;;8.88;;
26530;SDS011;14201;43.188;24.160;2023-12-04T05:22:59;15.55;;;8.80;;
26530;SDS011;14201;43.188;24.160;2023-12-04T05:25:25;25.45;;;10.10;;
26530;SDS011;14201;43.188;24.160;2023-12-04T05:27:53;23.38;;;9.57;;
26530;SDS011;14201;43.188;24.160;2023-12-04T05:30:19;21.73;;;10.40;;
26530;SDS011;14201;43.188;24.160;2023-12-04T05:32:45;26.10;;;10.55;;
26530;SDS011;14201;43.188;24.160;2023-12-04T05:35:10;30.45;;;10.48;;
26530;SDS011;14201;43.188;24.160;2023-12-04T05:37:36;25.50;;;9.13;;
26530;SDS011;14201;43.188;24.160;2023-12-04T05:40:02;22.50;;;10.27;;
26530;SDS011;14201;43.188;24.160;2023-12-04T05:42:30;21.48;;;9.25;;
26530;SDS011;14201;43.188;24.160;2023-12-04T05:44:55;17.63;;;9.18;;
26530;SDS011;14201;43.188;24.160;2023-12-04T05:47:22;22.42;;;9.85;;
26530;SDS011;14201;43.188;24.160;2023-12-04T05:49:48;21.05;;;9.70;;
26530;SDS011;14201;43.188;24.160;2023-12-04T05:52:13;19.55;;;10.85;;
26530;SDS011;14201;43.188;24.160;2023-12-04T05:54:39;27.42;;;11.43;;
26530;SDS011;14201;43.188;24.160;2023-12-04T05:57:05;31.58;;;11.93;;
26530;SDS011;14201;43.188;24.160;2023-12-04T05:59:30;17.05;;;8.65;;
26530;SDS011;14201;43.188;24.160;2023-12-04T06:01:56;20.17;;;9.35;;
26530;SDS011;14201;43.188;24.160;2023-12-04T06:04:22;23.55;;;10.10;;
26530;SDS011;14201;43.188;24.160;2023-12-04T06:06:47;19.83;;;9.70;;
26530;SDS011;14201;43.188;24.160;2023-12-04T06:09:13;31.42;;;11.38;;
26530;SDS011;14201;43.188;24.160;2023-12-04T06:11:41;21.38;;;10.48;;
26530;SDS011;14201;43.188;24.160;2023-12-04T06:14:07;20.63;;;9.43;;
26530;SDS011;14201;43.188;24.160;2023-12-04T06:16:33;24.77;;;8.90;;
26530;SDS011;14201;43.188;24.160;2023-12-04T06:18:58;18.20;;;8.40;;
26530;SDS011;14201;43.188;24.160;2023-12-04T06:21:24;18.92;;;9.10;;
26530;SDS011;14201;43.188;24.160;2023-12-04T06:23:50;17.55;;;9.00;;
26530;SDS011;14201;43.188;24.160;2023-12-04T06:26:16;19.98;;;8.85;;
26530;SDS011;14201;43.188;24.160;2023-12-04T06:28:43;18.55;;;8.70;;
26530;SDS011;14201;43.188;24.160;2023-12-04T06:31:09;18.17;;;8.70;;
26530;SDS011;14201;43.188;24.160;2023-12-04T06:33:35;18.45;;;9.40;;
26530;SDS011;14201;43.188;24.160;2023-12-04T06:36:01;16.23;;;9.23;;
26530;SDS011;14201;43.188;24.160;2023-12-04T06:38:27;14.45;;;8.50;;
26530;SDS011;14201;43.188;24.160;2023-12-04T06:40:58;12.57;;;7.88;;
26530;SDS011;14201;43.188;24.160;2023-12-04T06:43:24;21.63;;;9.10;;
26530;SDS011;14201;43.188;24.160;2023-12-04T06:45:50;17.33;;;8.90;;
26530;SDS011;14201;43.188;24.160;2023-12-04T06:48:16;15.43;;;8.02;;
26530;SDS011;14201;43.188;24.160;2023-12-04T06:50:42;15.18;;;8.73;;
26530;SDS011;14201;43.188;24.160;2023-12-04T06:53:08;14.23;;;8.82;;
26530;SDS011;14201;43.188;24.160;2023-12-04T06:55:34;15.32;;;8.75;;
26530;SDS011;14201;43.188;24.160;2023-12-04T06:58:00;15.80;;;9.15;;
26530;SDS011;14201;43.188;24.160;2023-12-04T07:00:25;17.42;;;9.43;;
26530;SDS011;14201;43.188;24.160;2023-12-04T07:02:51;15.63;;;10.07;;
26530;SDS011;14201;43.188;24.160;2023-12-04T07:05:17;15.70;;;9.00;;
26530;SDS011;14201;43.188;24.160;2023-12-04T07:07:44;14.73;;;9.63;;
26530;SDS011;14201;43.188;24.160;2023-12-04T07:10:10;15.48;;;9.05;;
26530;SDS011;14201;43.188;24.160;2023-12-04T07:12:44;16.92;;;7.93;;
26530;SDS011;14201;43.188;24.160;2023-12-04T07:15:10;14.18;;;8.82;;
26530;SDS011;14201;43.188;24.160;2023-12-04T07:17:37;18.58;;;8.75;;
26530;SDS011;14201;43.188;24.160;2023-12-04T07:20:03;16.05;;;9.10;;
26530;SDS011;14201;43.188;24.160;2023-12-04T07:22:32;18.63;;;8.75;;
26530;SDS011;14201;43.188;24.160;2023-12-04T07:24:58;15.65;;;8.93;;
26530;SDS011;14201;43.188;24.160;2023-12-04T07:27:24;16.02;;;8.30;;
26530;SDS011;14201;43.188;24.160;2023-12-04T07:29:50;16.23;;;8.35;;
26530;SDS011;14201;43.188;24.160;2023-12-04T07:32:16;14.75;;;8.35;;
26530;SDS011;14201;43.188;24.160;2023-12-04T07:34:43;14.57;;;8.52;;
26530;SDS011;14201;43.188;24.160;2023-12-04T07:37:09;13.18;;;7.97;;
26530;SDS011;14201;43.188;24.160;2023-12-04T07:39:34;13.00;;;8.02;;
26530;SDS011;14201;43.188;24.160;2023-12-04T07:42:00;12.13;;;7.57;;
26530;SDS011;14201;43.188;24.160;2023-12-04T07:44:26;12.38;;;7.40;;
26530;SDS011;14201;43.188;24.160;2023-12-04T07:46:52;9.95;;;7.30;;
26530;SDS011;14201;43.188;24.160;2023-12-04T07:49:18;8.82;;;6.47;;
26530;SDS011;14201;43.188;24.160;2023-12-04T07:51:43;10.93;;;6.22;;
26530;SDS011;14201;43.188;24.160;2023-12-04T07:54:09;13.75;;;6.80;;
26530;SDS011;14201;43.188;24.160;2023-12-04T07:56:35;9.30;;;6.72;;
26530;SDS011;14201;43.188;24.160;2023-12-04T07:59:01;8.55;;;5.88;;
26530;SDS011;14201;43.188;24.160;2023-12-04T08:01:26;5.70;;;4.28;;
26530;SDS011;14201;43.188;24.160;2023-12-04T08:03:52;10.55;;;5.40;;
26530;SDS011;14201;43.188;24.160;2023-12-04T08:06:18;7.93;;;4.93;;
26530;SDS011;14201;43.188;24.160;2023-12-04T08:08:44;7.25;;;5.25;;
26530;SDS011;14201;43.188;24.160;2023-12-04T08:11:10;8.07;;;6.25;;
26530;SDS011;14201;43.188;24.160;2023-12-04T08:13:40;13.25;;;7.75;;
26530;SDS011;14201;43.188;24.160;2023-12-04T08:16:12;9.07;;;6.78;;
26530;SDS011;14201;43.188;24.160;2023-12-04T08:18:40;12.18;;;6.65;;
26530;SDS011;14201;43.188;24.160;2023-12-04T08:21:06;7.47;;;5.50;;
26530;SDS011;14201;43.188;24.160;2023-12-04T08:23:32;8.05;;;5.00;;
26530;SDS011;14201;43.188;24.160;2023-12-04T08:25:57;9.02;;;4.95;;
26530;SDS011;14201;43.188;24.160;2023-12-04T08:28:23;5.60;;;4.05;;
26530;SDS011;14201;43.188;24.160;2023-12-04T08:30:49;6.25;;;3.50;;
26530;SDS011;14201;43.188;24.160;2023-12-04T08:33:14;4.30;;;2.83;;
26530;SDS011;14201;43.188;24.160;2023-12-04T08:35:41;4.57;;;2.60;;
26530;SDS011;14201;43.188;24.160;2023-12-04T08:38:06;2.95;;;1.85;;
26530;SDS011;14201;43.188;24.160;2023-12-04T08:40:32;2.60;;;1.77;;
26530;SDS011;14201;43.188;24.160;2023-12-04T08:42:58;2.00;;;1.50;;
26530;SDS011;14201;43.188;24.160;2023-12-04T08:45:23;1.55;;;1.20;;
26530;SDS011;14201;43.188;24.160;2023-12-04T08:47:49;2.85;;;1.50;;
26530;SDS011;14201;43.188;24.160;2023-12-04T08:50:15;2.17;;;1.35;;
26530;SDS011;14201;43.188;24.160;2023-12-04T08:52:41;1.65;;;1.38;;
26530;SDS011;14201;43.188;24.160;2023-12-04T08:55:07;1.48;;;1.27;;
26530;SDS011;14201;43.188;24.160;2023-12-04T08:57:33;4.03;;;2.42;;
26530;SDS011;14201;43.188;24.160;2023-12-04T08:59:59;3.50;;;2.10;;
26530;SDS011;14201;43.188;24.160;2023-12-04T09:02:25;3.25;;;2.20;;
26530;SDS011;14201;43.188;24.160;2023-12-04T09:04:51;4.07;;;2.05;;
26530;SDS011;14201;43.188;24.160;2023-12-04T09:07:16;4.55;;;2.22;;
26530;SDS011;14201;43.188;24.160;2023-12-04T09:09:42;4.55;;;2.60;;
26530;SDS011;14201;43.188;24.160;2023-12-04T09:12:09;3.92;;;2.55;;
26530;SDS011;14201;43.188;24.160;2023-12-04T09:14:35;3.05;;;2.00;;
26530;SDS011;14201;43.188;24.160;2023-12-04T09:17:01;3.33;;;2.28;;
26530;SDS011;14201;43.188;24.160;2023-12-04T09:19:26;3.08;;;2.17;;
26530;SDS011;14201;43.188;24.160;2023-12-04T09:21:52;3.22;;;1.92;;
26530;SDS011;14201;43.188;24.160;2023-12-04T09:24:18;5.32;;;2.78;;
26530;SDS011;14201;43.188;24.160;2023-12-04T09:26:44;3.47;;;2.22;;
26530;SDS011;14201;43.188;24.160;2023-12-04T09:29:12;3.65;;;2.25;;
26530;SDS011;14201;43.188;24.160;2023-12-04T09:31:38;3.25;;;2.08;;
26530;SDS011;14201;43.188;24.160;2023-12-04T09:34:05;2.65;;;1.90;;
26530;SDS011;14201;43.188;24.160;2023-12-04T09:36:31;4.07;;;2.70;;
26530;SDS011;14201;43.188;24.160;2023-12-04T09:38:56;5.60;;;2.17;;
26530;SDS011;14201;43.188;24.160;2023-12-04T09:41:22;4.05;;;2.13;;
26530;SDS011;14201;43.188;24.160;2023-12-04T09:43:48;4.95;;;2.50;;
26530;SDS011;14201;43.188;24.160;2023-12-04T09:46:14;3.05;;;2.08;;
26530;SDS011;14201;43.188;24.160;2023-12-04T09:48:42;3.92;;;2.20;;
26530;SDS011;14201;43.188;24.160;2023-12-04T09:51:09;2.85;;;2.22;;
26530;SDS011;14201;43.188;24.160;2023-12-04T09:53:35;3.08;;;2.17;;
26530;SDS011;14201;43.188;24.160;2023-12-04T09:56:04;2.55;;;1.80;;
26530;SDS011;14201;43.188;24.160;2023-12-04T09:58:32;4.13;;;2.08;;
26530;SDS011;14201;43.188;24.160;2023-12-04T10:01:02;5.05;;;1.80;;
26530;SDS011;14201;43.188;24.160;2023-12-04T10:03:29;3.78;;;2.13;;
26530;SDS011;14201;43.188;24.160;2023-12-04T10:05:55;4.32;;;2.20;;
26530;SDS011;14201;43.188;24.160;2023-12-04T10:08:21;4.05;;;2.13;;
26530;SDS011;14201;43.188;24.160;2023-12-04T10:10:47;2.90;;;2.13;;
26530;SDS011;14201;43.188;24.160;2023-12-04T10:13:13;3.25;;;1.88;;
26530;SDS011;14201;43.188;24.160;2023-12-04T10:15:45;2.92;;;2.10;;
26530;SDS011;14201;43.188;24.160;2023-12-04T10:18:32;4.40;;;2.00;;
26530;SDS011;14201;43.188;24.160;2023-12-04T10:20:58;3.15;;;2.15;;
26530;SDS011;14201;43.188;24.160;2023-12-04T10:23:40;3.83;;;2.50;;
26530;SDS011;14201;43.188;24.160;2023-12-04T10:26:07;3.65;;;2.22;;
26530;SDS011;14201;43.188;24.160;2023-12-04T10:28:34;3.35;;;2.20;;
26530;SDS011;14201;43.188;24.160;2023-12-04T10:31:00;2.97;;;2.00;;
26530;SDS011;14201;43.188;24.160;2023-12-04T10:33:26;2.92;;;2.08;;
26530;SDS011;14201;43.188;24.160;2023-12-04T10:35:55;2.97;;;2.22;;
26530;SDS011;14201;43.188;24.160;2023-12-04T10:38:22;3.58;;;2.22;;
26530;SDS011;14201;43.188;24.160;2023-12-04T10:40:48;2.90;;;2.40;;
26530;SDS011;14201;43.188;24.160;2023-12-04T10:45:41;3.70;;;2.65;;
26530;SDS011;14201;43.188;24.160;2023-12-04T10:48:09;7.03;;;2.17;;
26530;SDS011;14201;43.188;24.160;2023-12-04T10:50:36;2.65;;;1.95;;
26530;SDS011;14201;43.188;24.160;2023-12-04T10:53:07;3.38;;;2.13;;
26530;SDS011;14201;43.188;24.160;2023-12-04T10:55:34;4.35;;;2.30;;
26530;SDS011;14201;43.188;24.160;2023-12-04T10:58:01;3.17;;;2.38;;
26530;SDS011;14201;43.188;24.160;2023-12-04T11:00:31;2.75;;;1.98;;
26530;SDS011;14201;43.188;24.160;2023-12-04T11:03:01;3.83;;;2.53;;
26530;SDS011;14201;43.188;24.160;2023-12-04T11:05:30;4.25;;;2.88;;
26530;SDS011;14201;43.188;24.160;2023-12-04T11:08:01;2.97;;;2.35;;
26530;SDS011;14201;43.188;24.160;2023-12-04T11:10:29;4.03;;;2.53;;
26530;SDS011;14201;43.188;24.160;2023-12-04T11:13:06;3.97;;;2.60;;
26530;SDS011;14201;43.188;24.160;2023-12-04T11:15:39;4.93;;;2.70;;
26530;SDS011;14201;43.188;24.160;2023-12-04T11:18:09;4.63;;;3.20;;
26530;SDS011;14201;43.188;24.160;2023-12-04T11:20:43;5.60;;;2.70;;
26530;SDS011;14201;43.188;24.160;2023-12-04T11:23:16;3.45;;;2.60;;
26530;SDS011;14201;43.188;24.160;2023-12-04T11:25:43;3.22;;;2.38;;
26530;SDS011;14201;43.188;24.160;2023-12-04T11:28:09;4.60;;;2.95;;
26530;SDS011;14201;43.188;24.160;2023-12-04T11:30:36;5.80;;;3.00;;
26530;SDS011;14201;43.188;24.160;2023-12-04T11:33:06;4.82;;;2.55;;
26530;SDS011;14201;43.188;24.160;2023-12-04T11:35:33;4.47;;;2.95;;
26530;SDS011;14201;43.188;24.160;2023-12-04T11:37:59;3.85;;;2.83;;
26530;SDS011;14201;43.188;24.160;2023-12-04T11:40:25;3.38;;;2.70;;
26530;SDS011;14201;43.188;24.160;2023-12-04T11:42:52;2.80;;;2.35;;
26530;SDS011;14201;43.188;24.160;2023-12-04T11:45:19;3.72;;;2.75;;
26530;SDS011;14201;43.188;24.160;2023-12-04T11:47:51;3.60;;;2.67;;
26530;SDS011;14201;43.188;24.160;2023-12-04T11:50:20;4.20;;;2.72;;
26530;SDS011;14201;43.188;24.160;2023-12-04T11:52:46;3.17;;;2.40;;
26530;SDS011;14201;43.188;24.160;2023-12-04T11:55:31;3.47;;;2.40;;
26530;SDS011;14201;43.188;24.160;2023-12-04T11:58:08;6.10;;;2.70;;
26530;SDS011;14201;43.188;24.160;2023-12-04T12:00:35;4.10;;;2.67;;
26530;SDS011;14201;43.188;24.160;2023-12-04T12:03:02;3.67;;;2.65;;
26530;SDS011;14201;43.188;24.160;2023-12-04T12:05:31;5.05;;;2.85;;
26530;SDS011;14201;43.188;24.160;2023-12-04T12:08:01;3.67;;;2.65;;
26530;SDS011;14201;43.188;24.160;2023-12-04T12:10:28;4.75;;;3.03;;
26530;SDS011;14201;43.188;24.160;2023-12-04T12:12:55;4.95;;;2.92;;
26530;SDS011;14201;43.188;24.160;2023-12-04T12:15:21;6.65;;;3.13;;
26530;SDS011;14201;43.188;24.160;2023-12-04T12:17:47;4.22;;;2.83;;
26530;SDS011;14201;43.188;24.160;2023-12-04T12:20:15;3.45;;;2.70;;
26530;SDS011;14201;43.188;24.160;2023-12-04T12:22:41;4.80;;;2.42;;
26530;SDS011;14201;43.188;24.160;2023-12-04T12:25:09;3.75;;;2.60;;
26530;SDS011;14201;43.188;24.160;2023-12-04T12:27:36;3.95;;;2.70;;
26530;SDS011;14201;43.188;24.160;2023-12-04T12:30:02;5.20;;;3.33;;
26530;SDS011;14201;43.188;24.160;2023-12-04T12:32:35;3.97;;;2.40;;
26530;SDS011;14201;43.188;24.160;2023-12-04T12:35:02;8.98;;;3.30;;
26530;SDS011;14201;43.188;24.160;2023-12-04T12:37:32;4.47;;;2.88;;
26530;SDS011;14201;43.188;24.160;2023-12-04T12:40:00;3.67;;;2.70;;
26530;SDS011;14201;43.188;24.160;2023-12-04T12:42:28;4.95;;;2.70;;
26530;SDS011;14201;43.188;24.160;2023-12-04T12:44:54;6.05;;;2.70;;
26530;SDS011;14201;43.188;24.160;2023-12-04T12:47:21;4.60;;;2.92;;
26530;SDS011;14201;43.188;24.160;2023-12-04T12:49:48;3.05;;;2.20;;
26530;SDS011;14201;43.188;24.160;2023-12-04T12:52:14;6.07;;;2.83;;
26530;SDS011;14201;43.188;24.160;2023-12-04T12:54:40;3.35;;;2.60;;
26530;SDS011;14201;43.188;24.160;2023-12-04T12:57:06;3.90;;;2.60;;
26530;SDS011;14201;43.188;24.160;2023-12-04T12:59:32;6.70;;;2.60;;
26530;SDS011;14201;43.188;24.160;2023-12-04T13:01:59;3.92;;;2.95;;
26530;SDS011;14201;43.188;24.160;2023-12-04T13:04:37;5.70;;;2.80;;
26530;SDS011;14201;43.188;24.160;2023-12-04T13:07:05;3.60;;;2.58;;
26530;SDS011;14201;43.188;24.160;2023-12-04T13:09:32;8.18;;;3.17;;
26530;SDS011;14201;43.188;24.160;2023-12-04T13:12:00;3.03;;;2.35;;
26530;SDS011;14201;43.188;24.160;2023-12-04T13:14:27;4.57;;;2.80;;
26530;SDS011;14201;43.188;24.160;2023-12-04T13:16:53;4.03;;;2.60;;
26530;SDS011;14201;43.188;24.160;2023-12-04T13:19:20;3.70;;;3.10;;
26530;SDS011;14201;43.188;24.160;2023-12-04T13:21:46;4.88;;;3.03;;
26530;SDS011;14201;43.188;24.160;2023-12-04T13:24:12;4.00;;;3.08;;
26530;SDS011;14201;43.188;24.160;2023-12-04T13:26:37;4.97;;;3.03;;
26530;SDS011;14201;43.188;24.160;2023-12-04T13:29:04;6.75;;;3.28;;
26530;SDS011;14201;43.188;24.160;2023-12-04T13:31:31;4.20;;;3.17;;
26530;SDS011;14201;43.188;24.160;2023-12-04T13:33:58;5.78;;;3.33;;
26530;SDS011;14201;43.188;24.160;2023-12-04T13:36:24;4.60;;;3.08;;
26530;SDS011;14201;43.188;24.160;2023-12-04T13:38:50;8.32;;;3.28;;
26530;SDS011;14201;43.188;24.160;2023-12-04T13:41:16;10.50;;;7.03;;
26530;SDS011;14201;43.188;24.160;2023-12-04T13:44:00;7.95;;;3.30;;
26530;SDS011;14201;43.188;24.160;2023-12-04T13:46:27;4.38;;;2.63;;
26530;SDS011;14201;43.188;24.160;2023-12-04T13:48:55;5.55;;;2.95;;
26530;SDS011;14201;43.188;24.160;2023-12-04T13:51:24;7.78;;;3.65;;
26530;SDS011;14201;43.188;24.160;2023-12-04T13:53:51;5.47;;;3.55;;
26530;SDS011;14201;43.188;24.160;2023-12-04T13:56:22;6.18;;;3.17;;
26530;SDS011;14201;43.188;24.160;2023-12-04T13:59:06;5.05;;;3.03;;
26530;SDS011;14201;43.188;24.160;2023-12-04T14:01:32;7.40;;;3.83;;
26530;SDS011;14201;43.188;24.160;2023-12-04T14:03:59;6.60;;;3.30;;
26530;SDS011;14201;43.188;24.160;2023-12-04T14:06:27;5.18;;;3.40;;
26530;SDS011;14201;43.188;24.160;2023-12-04T14:08:56;6.97;;;3.58;;
26530;SDS011;14201;43.188;24.160;2023-12-04T14:11:22;4.93;;;3.35;;
26530;SDS011;14201;43.188;24.160;2023-12-04T14:13:49;10.63;;;4.07;;
26530;SDS011;14201;43.188;24.160;2023-12-04T14:16:14;12.20;;;4.10;;
26530;SDS011;14201;43.188;24.160;2023-12-04T14:18:41;7.07;;;4.35;;
26530;SDS011;14201;43.188;24.160;2023-12-04T14:21:10;6.60;;;4.10;;
26530;SDS011;14201;43.188;24.160;2023-12-04T14:23:35;8.88;;;4.68;;
26530;SDS011;14201;43.188;24.160;2023-12-04T14:26:01;9.60;;;5.07;;